Terminal Aerodrome Forecast
Issued by NWS

Home | Current Version | Previous Version | Text Only | Print | Product List | Glossary On
Versions: 1 2 3 4 5 6 7 8 9 10 11 12 13 14 15 16 17
000
FTUS45 KSLC 061724
TAF36U
TAF
K36U 061724Z 0618/0718 VRB04KT P6SM SCT060
     FM061900 VRB04KT P6SM SCT030 BKN060
     FM062300 VRB04KT 6SM -SHSN SCT010 BKN030
     FM070200 04006KT P6SM VCSH SCT010 BKN030=

USA.gov is the U.S. government's official web portal to all federal, state and local government web resources and services.